Time;durP1;ratioP1;P1;durP2;ratioP2;P2;SDS_P1;SDS_P2;PMS_P1;PMS_P2;Temp;Humidity;BMP_temperature;BMP_pressure;BME280_temperature;BME280_humidity;BME280_pressure;Samples;Min_cycle;Max_cycle;Signal;HPM_P1;HPM_P2
2023/08/04 00:00:10;;;;;;;16.00;10.95;;;;;;;25.65;70.89;94799.72;4946882;28;20229;-69
2023/08/04 00:02:36;;;;;;;15.40;10.88;;;;;;;25.81;70.89;94792.97;4915571;29;20232;-69
2023/08/04 00:05:03;;;;;;;14.88;10.70;;;;;;;25.82;70.71;94800.72;4929303;29;20233;-69
2023/08/04 00:07:28;;;;;;;15.60;10.70;;;;;;;25.95;70.20;94805.31;4953398;28;20235;-69
2023/08/04 00:09:54;;;;;;;16.02;11.00;;;;;;;25.83;70.38;94805.00;4932730;28;20242;-69
2023/08/04 00:12:20;;;;;;;16.67;10.70;;;;;;;25.79;70.42;94804.00;4975175;28;20233;-70
2023/08/04 00:14:49;;;;;;;14.15;10.88;;;;;;;25.78;70.77;94801.59;4932753;29;21128;-69
2023/08/04 00:17:15;;;;;;;14.02;10.48;;;;;;;25.80;70.63;94797.53;4933267;29;20953;-69
2023/08/04 00:19:40;;;;;;;16.48;11.20;;;;;;;25.69;70.75;94798.03;4934065;29;20289;-69
2023/08/04 00:22:06;;;;;;;15.43;11.00;;;;;;;25.60;71.37;94794.44;4933066;28;20245;-70
2023/08/04 00:24:31;;;;;;;15.70;10.70;;;;;;;25.56;71.55;94799.59;4977460;28;20624;-69
2023/08/04 00:26:57;;;;;;;16.10;11.00;;;;;;;25.43;71.92;94806.47;4960659;28;20242;-69
2023/08/04 00:29:22;;;;;;;16.50;11.07;;;;;;;25.31;72.65;94802.72;4934157;28;20232;-68
2023/08/04 00:31:48;;;;;;;16.90;11.80;;;;;;;25.16;73.04;94809.09;4934717;28;20228;-69
2023/08/04 00:34:13;;;;;;;16.77;11.40;;;;;;;25.14;73.56;94807.81;4941943;28;20240;-69
2023/08/04 00:36:39;;;;;;;16.88;11.38;;;;;;;25.39;72.71;94805.50;4939604;28;20604;-68
2023/08/04 00:39:04;;;;;;;14.35;10.82;;;;;;;25.41;72.89;94797.94;4933403;28;20236;-69
2023/08/04 00:41:30;;;;;;;16.70;12.18;;;;;;;25.58;73.11;94804.69;4951067;28;20239;-77
2023/08/04 00:43:55;;;;;;;17.80;12.07;;;;;;;25.63;73.35;94810.72;4934457;28;20928;-78
2023/08/04 00:46:21;;;;;;;17.40;12.70;;;;;;;25.65;73.42;94813.13;4951604;28;20239;-76
2023/08/04 00:48:46;;;;;;;17.70;12.65;;;;;;;25.73;73.27;94809.75;4951383;28;20229;-77
2023/08/04 00:51:12;;;;;;;18.08;13.23;;;;;;;25.62;73.92;94808.34;4917415;28;20244;-78
2023/08/04 00:53:38;;;;;;;15.90;12.35;;;;;;;25.57;74.00;94814.59;4953810;28;20367;-78
2023/08/04 00:56:04;;;;;;;18.83;13.10;;;;;;;25.51;74.23;94809.63;4955779;28;20239;-76
2023/08/04 00:58:31;;;;;;;15.65;12.65;;;;;;;25.52;74.22;94808.53;4952859;28;20232;-77
2023/08/04 01:00:56;;;;;;;17.30;12.45;;;;;;;25.36;74.86;94813.34;4920542;28;20252;-78
2023/08/04 01:03:22;;;;;;;19.58;13.20;;;;;;;25.35;75.16;94815.22;4943544;28;20285;-77
2023/08/04 01:05:54;;;;;;;15.05;12.60;;;;;;;25.26;75.58;94808.94;4933437;28;20307;-77
2023/08/04 01:08:22;;;;;;;18.42;13.07;;;;;;;25.16;76.01;94809.09;4944054;28;20236;-77
2023/08/04 01:10:55;;;;;;;18.25;13.00;;;;;;;25.19;75.85;94800.50;4943894;28;20347;-79
2023/08/04 01:13:22;;;;;;;17.05;13.20;;;;;;;25.08;76.23;94803.59;4929584;28;20565;-77
2023/08/04 01:15:49;;;;;;;17.27;12.23;;;;;;;25.12;76.23;94804.63;4931022;28;20250;-77
2023/08/04 01:18:19;;;;;;;19.55;12.85;;;;;;;25.26;75.59;94811.63;4942811;28;20248;-77
2023/08/04 01:20:45;;;;;;;15.90;12.63;;;;;;;25.36;74.86;94806.06;4940979;28;20240;-76
2023/08/04 01:23:10;;;;;;;17.65;13.45;;;;;;;25.12;75.80;94802.75;4939134;28;20228;-77
2023/08/04 01:25:36;;;;;;;17.40;12.90;;;;;;;25.16;75.69;94798.38;4953957;28;20966;-78
2023/08/04 01:28:08;;;;;;;14.98;12.13;;;;;;;25.15;75.93;94804.06;4938967;28;20347;-77
2023/08/04 01:30:33;;;;;;;23.30;12.63;;;;;;;25.05;76.18;94798.84;4944365;28;20675;-78
2023/08/04 01:32:59;;;;;;;15.60;12.38;;;;;;;25.03;76.20;94801.03;4953157;28;20785;-76
2023/08/04 01:35:24;;;;;;;17.63;11.90;;;;;;;24.93;76.65;94802.00;4922039;28;20245;-77
2023/08/04 01:37:50;;;;;;;16.92;12.55;;;;;;;24.90;76.44;94804.44;5015742;28;20236;-79
2023/08/04 01:40:15;;;;;;;17.13;12.48;;;;;;;24.94;76.51;94808.91;4937059;28;20247;-77
2023/08/04 01:42:41;;;;;;;17.48;12.48;;;;;;;24.99;76.36;94808.84;4934931;28;20228;-77
2023/08/04 01:45:07;;;;;;;15.77;12.15;;;;;;;24.82;76.88;94815.81;4926240;28;20237;-78
2023/08/04 01:47:32;;;;;;;19.55;12.93;;;;;;;24.80;77.43;94813.41;4939871;28;20251;-78
2023/08/04 01:49:58;;;;;;;17.90;13.10;;;;;;;24.81;76.92;94814.22;4919151;28;20624;-75
2023/08/04 01:52:24;;;;;;;17.90;12.57;;;;;;;24.79;77.24;94816.41;4926143;28;20722;-78
2023/08/04 01:54:49;;;;;;;16.60;12.93;;;;;;;24.72;77.55;94822.06;4935709;28;20224;-78
2023/08/04 01:57:15;;;;;;;18.90;12.75;;;;;;;24.63;78.28;94823.81;4934856;28;20646;-77
2023/08/04 01:59:40;;;;;;;18.38;13.32;;;;;;;24.77;77.74;94814.78;4939916;28;20338;-78
2023/08/04 02:02:07;;;;;;;18.65;13.13;;;;;;;24.84;77.23;94822.47;4937417;28;20725;-77
2023/08/04 02:04:32;;;;;;;17.92;12.98;;;;;;;24.73;77.59;94827.16;4937199;28;20233;-78
2023/08/04 02:06:58;;;;;;;16.70;12.55;;;;;;;24.80;77.34;94818.78;4931091;28;20256;-75
2023/08/04 02:09:27;;;;;;;17.20;13.05;;;;;;;24.88;76.96;94820.81;4933107;28;20276;-77
2023/08/04 02:11:53;;;;;;;17.90;13.18;;;;;;;24.86;77.15;94824.88;4952511;28;20244;-77
2023/08/04 02:14:19;;;;;;;18.20;13.35;;;;;;;24.90;76.68;94829.34;4935041;28;20228;-78
2023/08/04 02:16:44;;;;;;;19.30;13.85;;;;;;;25.02;76.44;94828.91;4929072;28;20236;-77
2023/08/04 02:19:10;;;;;;;20.20;13.68;;;;;;;24.90;76.60;94823.19;4956246;28;20256;-77
2023/08/04 02:21:37;;;;;;;22.17;14.48;;;;;;;24.87;76.89;94831.78;4932212;28;20317;-79
2023/08/04 02:24:03;;;;;;;22.38;14.95;;;;;;;24.79;76.68;94838.59;4924842;28;20246;-77
2023/08/04 02:26:29;;;;;;;23.52;14.43;;;;;;;24.82;76.61;94838.03;4952218;28;20233;-78
2023/08/04 02:28:55;;;;;;;23.90;14.93;;;;;;;24.93;75.88;94841.38;4953990;28;20342;-78
2023/08/04 02:31:21;;;;;;;24.83;15.88;;;;;;;24.92;75.77;94843.22;4939010;28;20228;-79
2023/08/04 02:33:46;;;;;;;24.42;14.75;;;;;;;24.92;75.57;94847.78;4936894;28;20311;-78
2023/08/04 02:36:14;;;;;;;19.98;14.50;;;;;;;24.88;75.77;94847.59;4957226;28;20239;-77
2023/08/04 02:38:39;;;;;;;21.05;14.18;;;;;;;24.88;75.48;94846.78;4944777;28;20351;-78
2023/08/04 02:41:05;;;;;;;23.13;14.13;;;;;;;24.79;76.01;94848.53;4941575;28;20239;-78
2023/08/04 02:43:30;;;;;;;21.45;14.15;;;;;;;24.84;75.24;94846.56;4943088;28;20645;-78
2023/08/04 02:45:56;;;;;;;19.70;13.30;;;;;;;24.67;76.00;94848.94;4952655;28;20237;-77
2023/08/04 02:48:21;;;;;;;18.45;13.02;;;;;;;24.63;76.49;94846.03;4920737;28;20328;-77
2023/08/04 02:50:48;;;;;;;21.70;13.63;;;;;;;24.59;76.33;94852.25;4959070;28;20241;-76
2023/08/04 02:53:14;;;;;;;18.85;13.38;;;;;;;24.26;77.62;94846.00;4933038;28;20653;-78
2023/08/04 02:55:39;;;;;;;18.63;13.82;;;;;;;24.23;77.77;94846.56;4957496;28;20228;-78
2023/08/04 02:58:06;;;;;;;21.35;13.85;;;;;;;24.38;77.25;94853.59;4949478;28;20236;-79
2023/08/04 03:00:31;;;;;;;18.80;13.48;;;;;;;24.32;77.25;94855.53;4933546;28;20247;-77
2023/08/04 03:02:56;;;;;;;21.17;13.43;;;;;;;24.23;77.53;94846.56;4936959;28;20328;-77
2023/08/04 03:05:23;;;;;;;20.58;13.73;;;;;;;24.34;77.36;94857.91;4936720;28;20232;-78
2023/08/04 03:07:48;;;;;;;18.90;13.60;;;;;;;24.32;77.13;94852.06;4941811;28;20252;-78
2023/08/04 03:10:13;;;;;;;19.80;14.05;;;;;;;24.23;77.71;94851.09;4954747;28;20232;-79
2023/08/04 03:12:39;;;;;;;19.80;14.15;;;;;;;24.19;77.86;94850.09;4926820;28;20252;-77
2023/08/04 03:15:05;;;;;;;19.17;13.93;;;;;;;24.29;77.76;94842.72;4951367;28;20689;-78
2023/08/04 03:17:30;;;;;;;19.63;13.65;;;;;;;24.23;77.97;94838.53;4936369;28;20225;-77
2023/08/04 03:19:56;;;;;;;19.88;14.00;;;;;;;24.14;78.37;94848.28;4934848;28;20240;-77
2023/08/04 03:22:21;;;;;;;22.00;14.27;;;;;;;24.13;78.78;94853.88;4928550;28;20225;-77
2023/08/04 03:24:47;;;;;;;18.85;14.10;;;;;;;24.19;78.65;94852.75;4939075;28;20227;-78
2023/08/04 03:27:12;;;;;;;19.73;14.00;;;;;;;24.28;78.74;94853.72;4937250;28;20267;-78
2023/08/04 03:29:38;;;;;;;23.00;14.07;;;;;;;24.03;79.50;94852.91;4945869;28;20673;-79
2023/08/04 03:32:04;;;;;;;22.88;14.45;;;;;;;24.03;79.68;94860.91;4927614;28;20247;-78
2023/08/04 03:34:29;;;;;;;21.85;14.20;;;;;;;23.93;79.53;94853.00;4952691;28;20225;-78
2023/08/04 03:36:55;;;;;;;19.23;13.85;;;;;;;24.02;79.04;94854.00;4924820;28;20247;-79
2023/08/04 03:39:21;;;;;;;18.58;14.27;;;;;;;24.06;78.82;94851.53;4936766;28;20271;-78
2023/08/04 03:41:46;;;;;;;20.20;13.98;;;;;;;24.14;78.90;94848.28;4953851;28;20434;-78
2023/08/04 03:44:11;;;;;;;19.95;14.25;;;;;;;24.08;79.05;94855.56;4953827;28;20236;-78
2023/08/04 03:46:37;;;;;;;22.95;14.15;;;;;;;24.10;78.79;94857.94;4937252;28;20287;-77
2023/08/04 03:49:03;;;;;;;18.10;13.63;;;;;;;24.04;79.47;94865.19;4919927;28;20236;-77
2023/08/04 03:51:28;;;;;;;19.40;13.95;;;;;;;24.07;78.57;94858.53;4923775;28;20631;-77
2023/08/04 03:53:54;;;;;;;20.45;14.13;;;;;;;23.98;78.87;94860.97;4921560;28;20251;-77
2023/08/04 03:56:19;;;;;;;19.13;13.60;;;;;;;24.20;77.84;94857.81;4954927;28;20240;-76
2023/08/04 03:58:44;;;;;;;19.50;13.55;;;;;;;24.20;77.45;94857.81;4952829;28;20232;-77
2023/08/04 04:01:10;;;;;;;21.30;13.77;;;;;;;24.30;76.80;94856.91;4937825;28;20243;-77
2023/08/04 04:03:35;;;;;;;20.60;14.32;;;;;;;24.05;78.50;94865.97;4927783;28;20244;-78
2023/08/04 04:06:01;;;;;;;19.17;13.77;;;;;;;24.18;77.90;94856.50;4953376;28;20240;-78
2023/08/04 04:08:26;;;;;;;20.58;13.48;;;;;;;24.26;77.46;94858.56;4937628;28;20240;-78
2023/08/04 04:10:52;;;;;;;18.52;13.73;;;;;;;24.12;77.96;94863.81;4953866;28;20279;-78
2023/08/04 04:13:17;;;;;;;20.40;13.93;;;;;;;24.15;77.69;94865.91;4922612;28;20232;-78
2023/08/04 04:15:43;;;;;;;19.92;13.45;;;;;;;24.05;78.47;94866.78;4940834;28;20256;-78
2023/08/04 04:18:08;;;;;;;18.27;13.65;;;;;;;24.32;77.28;94860.09;4936191;28;20737;-78
2023/08/04 04:20:34;;;;;;;18.73;13.15;;;;;;;24.24;77.62;94871.44;4937847;28;20792;-77
2023/08/04 04:22:59;;;;;;;19.80;13.82;;;;;;;24.20;77.70;94870.38;4921449;28;20871;-78
2023/08/04 04:25:25;;;;;;;17.90;13.27;;;;;;;24.30;77.27;94865.72;4952189;28;20224;-77
2023/08/04 04:27:51;;;;;;;19.27;13.27;;;;;;;24.33;77.37;94859.81;4950850;28;20370;-77
2023/08/04 04:30:16;;;;;;;18.13;13.20;;;;;;;24.40;77.13;94867.50;4952663;28;20239;-77
2023/08/04 04:32:42;;;;;;;19.67;13.60;;;;;;;24.50;76.42;94865.50;4951996;28;20265;-78
2023/08/04 04:35:07;;;;;;;20.23;14.10;;;;;;;24.53;76.50;94866.75;4927487;28;20639;-78
2023/08/04 04:37:33;;;;;;;18.95;14.18;;;;;;;24.50;76.37;94865.50;4933600;28;20225;-79
2023/08/04 04:39:58;;;;;;;23.17;13.43;;;;;;;24.55;75.84;94870.75;4940391;28;20229;-77
2023/08/04 04:42:24;;;;;;;16.90;13.35;;;;;;;24.52;76.05;94871.34;4924535;28;20224;-78
2023/08/04 04:44:49;;;;;;;20.55;14.50;;;;;;;24.65;76.10;94875.19;4950091;28;20227;-78
2023/08/04 04:47:15;;;;;;;19.98;13.90;;;;;;;24.74;75.59;94873.47;4943681;28;20251;-78
2023/08/04 04:49:40;;;;;;;22.73;13.82;;;;;;;24.91;75.07;94876.44;4942472;28;20235;-78
2023/08/04 04:52:06;;;;;;;21.33;13.63;;;;;;;24.83;75.79;94873.63;4935890;28;20319;-78
2023/08/04 04:54:32;;;;;;;20.55;14.07;;;;;;;24.98;74.90;94882.22;4952456;28;20249;-79
2023/08/04 04:56:57;;;;;;;17.10;13.40;;;;;;;24.97;74.29;94877.19;4952815;28;20237;-78
2023/08/04 04:59:23;;;;;;;18.40;14.10;;;;;;;24.99;74.99;94877.69;4989244;28;20229;-79
2023/08/04 05:01:49;;;;;;;19.73;14.20;;;;;;;24.95;75.43;94874.81;4932586;29;20264;-77
2023/08/04 05:04:14;;;;;;;20.80;14.18;;;;;;;25.04;74.76;94883.78;4932183;28;20337;-77
2023/08/04 05:06:40;;;;;;;23.20;14.07;;;;;;;25.11;74.59;94881.53;5001853;28;20240;-77
2023/08/04 05:09:05;;;;;;;20.80;14.18;;;;;;;25.27;73.15;94882.06;4937748;28;20229;-78
2023/08/04 05:11:30;;;;;;;23.50;13.82;;;;;;;25.29;72.52;94886.06;4975401;28;20295;-78
2023/08/04 05:13:56;;;;;;;22.35;13.75;;;;;;;25.39;72.58;94885.91;5006501;28;20234;-78
2023/08/04 05:16:22;;;;;;;18.67;14.43;;;;;;;25.35;72.96;94887.59;4963801;28;20243;-77
2023/08/04 05:18:47;;;;;;;22.67;14.60;;;;;;;25.34;72.93;94888.66;4934878;28;20224;-79
2023/08/04 05:21:13;;;;;;;24.65;14.25;;;;;;;25.42;72.76;94888.00;4922254;29;20229;-80
2023/08/04 05:23:39;;;;;;;20.65;13.68;;;;;;;25.35;72.84;94882.22;4962214;28;20233;-80
2023/08/04 05:26:04;;;;;;;21.52;14.50;;;;;;;25.68;71.09;94888.41;4937584;28;20268;-80
2023/08/04 05:28:30;;;;;;;24.25;14.57;;;;;;;25.80;69.97;94886.03;4933902;28;20324;-81
2023/08/04 05:31:03;;;;;;;20.83;14.23;;;;;;;25.90;69.86;94885.06;4949758;28;20284;-80
2023/08/04 05:33:29;;;;;;;21.23;14.35;;;;;;;26.05;69.47;94874.88;4930465;28;20675;-80
2023/08/04 05:35:55;;;;;;;18.50;14.52;;;;;;;26.34;68.45;94885.34;4920990;28;20244;-80
2023/08/04 05:38:20;;;;;;;19.92;14.20;;;;;;;26.76;66.40;94881.53;4969696;28;20235;-79
2023/08/04 05:40:46;;;;;;;21.50;14.40;;;;;;;27.25;64.50;94888.78;4933257;28;20983;-79
2023/08/04 05:43:12;;;;;;;20.90;14.55;;;;;;;26.78;65.60;94892.78;4914583;28;20685;-79
2023/08/04 05:45:39;;;;;;;20.25;14.20;;;;;;;26.49;67.10;94881.53;4930817;29;20229;-80
2023/08/04 05:48:04;;;;;;;18.70;14.32;;;;;;;26.57;67.61;94880.84;4931593;29;20237;-78
2023/08/04 05:50:30;;;;;;;19.98;14.18;;;;;;;26.48;67.91;94879.97;4932205;28;20683;-77
2023/08/04 05:52:56;;;;;;;22.05;15.10;;;;;;;26.44;68.03;94884.34;5000246;28;20290;-77
2023/08/04 05:55:21;;;;;;;18.77;13.73;;;;;;;26.37;68.19;94886.59;4946994;28;20248;-77
2023/08/04 05:57:47;;;;;;;21.73;14.63;;;;;;;26.35;67.57;94886.91;4920504;29;20711;-77
2023/08/04 06:00:13;;;;;;;20.13;14.00;;;;;;;26.46;67.82;94885.59;4911233;28;20229;-77
2023/08/04 06:02:38;;;;;;;19.90;14.32;;;;;;;26.40;68.26;94884.13;5003364;28;20224;-76
2023/08/04 06:05:04;;;;;;;20.15;14.68;;;;;;;26.51;67.43;94893.56;4952134;28;20749;-77
2023/08/04 06:07:30;;;;;;;19.95;14.25;;;;;;;26.38;68.19;94897.06;4946944;28;20232;-77
2023/08/04 06:09:55;;;;;;;21.90;14.00;;;;;;;26.42;68.12;94890.00;4955832;28;20735;-77
2023/08/04 06:12:21;;;;;;;21.75;14.63;;;;;;;26.54;67.72;94890.28;4939739;28;20239;-77
2023/08/04 06:14:46;;;;;;;18.30;13.80;;;;;;;26.57;67.82;94887.00;4946198;28;20233;-77
2023/08/04 06:17:12;;;;;;;22.40;14.07;;;;;;;26.64;67.28;94883.91;4956426;28;20231;-76
2023/08/04 06:19:42;;;;;;;22.05;14.40;;;;;;;26.70;66.53;94880.81;4937930;28;20221;-76
2023/08/04 06:22:07;;;;;;;18.90;14.57;;;;;;;26.62;67.50;94892.28;4923767;28;20243;-78
2023/08/04 06:24:33;;;;;;;18.73;13.82;;;;;;;26.70;66.66;94886.19;4927554;28;20225;-76
2023/08/04 06:26:58;;;;;;;21.63;14.27;;;;;;;26.67;66.94;94886.00;4938822;28;20241;-76
2023/08/04 06:29:24;;;;;;;25.38;13.98;;;;;;;26.86;66.50;94884.00;4936830;28;20283;-79
2023/08/04 06:31:49;;;;;;;18.52;13.95;;;;;;;26.88;65.67;94891.75;4930423;28;20336;-76
2023/08/04 06:34:15;;;;;;;19.05;14.02;;;;;;;26.87;65.62;94892.88;4933092;28;20623;-77
2023/08/04 06:36:40;;;;;;;20.23;13.88;;;;;;;26.93;66.10;94892.44;4959580;28;20705;-77
2023/08/04 06:39:06;;;;;;;19.45;13.85;;;;;;;26.98;65.52;94884.28;4939734;28;20228;-77
2023/08/04 06:41:31;;;;;;;20.15;13.95;;;;;;;27.04;65.46;94885.75;4939679;28;20629;-77
2023/08/04 06:43:57;;;;;;;19.27;13.68;;;;;;;27.18;65.69;94886.50;4956172;28;20702;-79
2023/08/04 06:46:23;;;;;;;19.73;14.35;;;;;;;27.25;64.04;94883.41;4936891;28;20614;-78
2023/08/04 06:48:48;;;;;;;19.50;13.77;;;;;;;27.25;64.57;94883.41;4943479;28;20245;-77
2023/08/04 06:51:14;;;;;;;19.60;14.02;;;;;;;27.29;64.47;94874.44;4936761;28;20229;-78
2023/08/04 06:53:39;;;;;;;19.60;13.65;;;;;;;27.43;63.70;94878.97;4950338;28;20672;-78
2023/08/04 06:56:05;;;;;;;19.08;13.85;;;;;;;27.47;63.81;94878.03;4944650;28;20369;-80
2023/08/04 06:58:30;;;;;;;21.00;13.50;;;;;;;27.58;63.74;94881.28;4926557;28;20239;-78
2023/08/04 07:00:55;;;;;;;22.58;13.95;;;;;;;27.56;63.46;94881.56;4937903;28;20239;-77
2023/08/04 07:03:21;;;;;;;19.65;13.63;;;;;;;27.67;63.04;94880.25;4949062;28;20231;-77
2023/08/04 07:05:46;;;;;;;17.50;13.30;;;;;;;27.71;65.12;94872.34;4937871;28;20232;-77
2023/08/04 07:08:12;;;;;;;17.70;13.65;;;;;;;27.74;62.47;94871.72;4939290;28;20289;-77
2023/08/04 07:10:37;;;;;;;18.35;13.25;;;;;;;27.76;62.58;94872.22;4951697;28;20228;-78
2023/08/04 07:13:03;;;;;;;20.80;13.70;;;;;;;27.89;62.81;94874.84;4952081;28;20276;-78
2023/08/04 07:15:31;;;;;;;18.45;12.88;;;;;;;28.06;61.87;94876.06;4951288;28;20256;-76
2023/08/04 07:17:56;;;;;;;18.60;12.13;;;;;;;28.16;59.86;94871.16;4940436;28;20243;-78
2023/08/04 07:20:21;;;;;;;15.73;11.52;;;;;;;28.34;58.91;94866.66;4951000;28;20232;-78
2023/08/04 07:22:47;;;;;;;17.88;11.15;;;;;;;28.45;58.14;94868.75;4953964;28;20259;-79
2023/08/04 07:25:12;;;;;;;21.25;11.60;;;;;;;28.47;58.39;94868.41;4949446;28;20251;-78
2023/08/04 07:27:38;;;;;;;16.38;10.65;;;;;;;28.48;57.22;94868.13;4950769;28;20708;-79
2023/08/04 07:30:04;;;;;;;14.00;11.15;;;;;;;28.52;57.37;94873.66;4958131;28;20244;-75
2023/08/04 07:32:29;;;;;;;13.50;10.63;;;;;;;28.75;56.44;94866.31;4951086;28;20232;-78
2023/08/04 07:34:55;;;;;;;12.57;10.52;;;;;;;28.88;55.49;94871.56;4951990;28;20228;-77
2023/08/04 07:37:20;;;;;;;17.77;10.65;;;;;;;29.05;54.86;94871.56;4922589;28;20257;-78
2023/08/04 07:39:46;;;;;;;15.43;11.32;;;;;;;28.97;55.54;94872.34;4952007;28;20312;-69
2023/08/04 07:42:11;;;;;;;16.50;10.50;;;;;;;28.96;56.46;94865.41;4937959;28;20237;-71
2023/08/04 07:44:37;;;;;;;15.45;10.50;;;;;;;29.08;54.72;94857.47;4923433;28;20252;-70
2023/08/04 07:47:02;;;;;;;14.98;9.95;;;;;;;29.17;55.67;94865.56;4927959;28;20294;-70
2023/08/04 07:49:28;;;;;;;18.40;10.82;;;;;;;29.19;55.45;94861.47;4939848;28;20224;-70
2023/08/04 07:51:54;;;;;;;15.82;10.02;;;;;;;29.32;54.02;94862.41;4935985;28;20244;-69
2023/08/04 07:54:19;;;;;;;15.40;9.80;;;;;;;29.44;53.41;94869.84;4953760;28;20240;-70
2023/08/04 07:56:45;;;;;;;14.18;10.13;;;;;;;29.40;53.02;94864.28;4934544;28;20743;-69
2023/08/04 07:59:10;;;;;;;14.15;9.32;;;;;;;29.49;52.26;94862.41;4923456;28;20240;-69
2023/08/04 08:01:36;;;;;;;10.13;8.82;;;;;;;29.57;51.29;94858.13;4939812;28;20233;-70
2023/08/04 08:04:01;;;;;;;11.73;9.20;;;;;;;29.54;52.52;94856.03;4935409;28;20243;-69
2023/08/04 08:06:27;;;;;;;15.38;9.40;;;;;;;29.54;51.83;94861.44;4943513;28;20233;-69
2023/08/04 08:08:52;;;;;;;13.05;8.43;;;;;;;29.67;51.64;94860.44;4932445;28;20329;-69
2023/08/04 08:11:18;;;;;;;13.13;9.27;;;;;;;29.66;51.78;94853.50;4943930;28;20323;-70
2023/08/04 08:13:43;;;;;;;11.95;9.60;;;;;;;29.66;51.98;94856.19;4922869;28;20217;-69
2023/08/04 08:16:15;;;;;;;15.80;9.02;;;;;;;29.77;50.86;94855.56;4943431;28;20287;-69
2023/08/04 08:18:41;;;;;;;14.15;9.02;;;;;;;29.96;49.56;94863.28;4925533;28;20259;-76
2023/08/04 08:21:07;;;;;;;12.60;9.00;;;;;;;29.96;50.89;94849.78;4949617;28;20233;-77
2023/08/04 08:23:32;;;;;;;11.10;8.68;;;;;;;30.04;50.27;94848.16;4943443;28;20220;-77
2023/08/04 08:25:58;;;;;;;13.77;8.98;;;;;;;30.25;50.00;94849.03;4945226;28;20248;-77
2023/08/04 08:28:23;;;;;;;12.82;9.50;;;;;;;30.39;49.59;94853.13;4934467;28;20228;-78
2023/08/04 08:30:49;;;;;;;15.10;8.90;;;;;;;30.45;49.53;94856.44;4927291;28;20282;-78
2023/08/04 08:33:15;;;;;;;13.65;9.32;;;;;;;30.33;49.59;94843.59;4921833;28;20233;-78
2023/08/04 08:35:40;;;;;;;14.48;9.27;;;;;;;30.43;49.50;94848.66;4949759;28;20325;-78
2023/08/04 08:38:06;;;;;;;13.30;9.25;;;;;;;30.57;49.50;94838.38;4931818;28;20641;-76
2023/08/04 08:40:31;;;;;;;13.27;9.25;;;;;;;30.65;49.38;94850.28;4949830;28;20837;-77
2023/08/04 08:42:57;;;;;;;14.15;9.38;;;;;;;30.76;49.28;94850.69;4950313;28;20374;-77
2023/08/04 08:45:29;;;;;;;11.90;9.10;;;;;;;30.88;49.12;94850.78;4925170;28;20303;-77
2023/08/04 08:47:58;;;;;;;12.85;9.43;;;;;;;30.95;48.55;94849.16;4938530;28;20233;-77
2023/08/04 08:50:24;;;;;;;13.82;9.35;;;;;;;31.02;48.52;94840.53;4936174;28;20252;-77
2023/08/04 08:52:58;;;;;;;13.93;9.90;;;;;;;31.05;48.92;94842.53;4935707;28;20293;-79
2023/08/04 08:55:25;;;;;;;13.35;9.30;;;;;;;31.17;48.50;94838.00;4926115;28;20232;-77
2023/08/04 08:57:51;;;;;;;11.77;9.65;;;;;;;31.22;47.56;94837.00;4985726;28;20273;-78
2023/08/04 09:00:17;;;;;;;13.70;10.00;;;;;;;31.32;49.00;94831.19;5011357;28;20261;-79
2023/08/04 09:02:42;;;;;;;12.27;9.48;;;;;;;31.48;47.47;94837.59;5013274;28;20232;-78
2023/08/04 09:05:08;;;;;;;13.00;9.30;;;;;;;31.46;48.04;94831.72;4939071;28;20228;-78
2023/08/04 09:07:34;;;;;;;12.25;9.50;;;;;;;31.50;48.01;94829.97;4950910;28;20228;-77
2023/08/04 09:09:59;;;;;;;15.10;9.93;;;;;;;31.57;48.18;94827.50;4965507;28;20241;-76
2023/08/04 09:12:26;;;;;;;13.07;10.02;;;;;;;31.54;47.77;94825.44;4936478;28;20229;-77
2023/08/04 09:14:55;;;;;;;15.07;10.43;;;;;;;31.73;46.46;94820.31;4952443;28;20236;-79
2023/08/04 09:17:33;;;;;;;13.88;9.82;;;;;;;31.90;46.21;94822.84;4937008;28;20236;-79
2023/08/04 09:20:00;;;;;;;12.13;9.93;;;;;;;31.98;46.17;94823.09;4948660;28;20235;-77
2023/08/04 09:22:26;;;;;;;12.88;10.30;;;;;;;31.88;46.48;94819.66;4952804;28;20231;-78
2023/08/04 09:24:59;;;;;;;13.07;9.82;;;;;;;32.10;45.27;94820.41;4953814;28;20255;-77
2023/08/04 09:27:35;;;;;;;14.18;10.10;;;;;;;32.14;45.54;94816.69;4957438;28;20252;-77
2023/08/04 09:30:03;;;;;;;13.45;9.85;;;;;;;32.29;45.37;94815.22;4951923;28;20644;-78
2023/08/04 09:32:29;;;;;;;12.50;9.93;;;;;;;32.31;44.89;94811.06;4951371;28;20979;-79
2023/08/04 09:34:59;;;;;;;17.20;10.40;;;;;;;32.22;45.13;94815.78;4936239;28;20320;-77
2023/08/04 09:37:24;;;;;;;11.43;9.98;;;;;;;32.26;45.42;94805.06;4966328;28;20232;-76
2023/08/04 09:39:50;;;;;;;14.32;9.77;;;;;;;32.36;45.49;94805.38;4940387;28;20610;-78
2023/08/04 09:42:15;;;;;;;11.95;9.93;;;;;;;32.40;44.43;94800.09;4937770;28;20274;-76
2023/08/04 09:44:41;;;;;;;17.02;10.48;;;;;;;32.64;43.92;94812.84;4942657;28;20228;-78
2023/08/04 09:47:06;;;;;;;12.32;9.80;;;;;;;32.69;44.94;94799.84;4953723;28;20237;-76
2023/08/04 09:49:32;;;;;;;11.60;10.20;;;;;;;32.59;43.35;94797.59;4951774;28;20624;-76
2023/08/04 09:51:57;;;;;;;13.38;9.90;;;;;;;32.54;42.88;94798.63;4934973;28;20239;-77
2023/08/04 09:54:23;;;;;;;11.68;9.57;;;;;;;32.56;43.56;94787.44;4952211;28;20320;-77
2023/08/04 09:56:51;;;;;;;12.13;9.52;;;;;;;32.88;43.53;94791.91;4925859;28;20236;-78
2023/08/04 09:59:18;;;;;;;12.95;9.13;;;;;;;33.06;41.84;94792.44;4934772;28;20242;-77
2023/08/04 10:01:44;;;;;;;13.05;9.70;;;;;;;33.20;39.97;94792.84;4949748;28;20240;-78
2023/08/04 10:04:09;;;;;;;13.30;9.30;;;;;;;33.40;40.79;94796.50;4933423;28;20787;-78
2023/08/04 10:06:35;;;;;;;12.00;9.05;;;;;;;33.46;39.99;94795.13;4966548;28;20228;-77
2023/08/04 10:09:01;;;;;;;12.93;9.07;;;;;;;33.50;39.06;94796.78;4935864;28;20236;-78
2023/08/04 10:11:26;;;;;;;15.90;8.98;;;;;;;33.52;39.29;94791.00;4952532;28;20262;-79
2023/08/04 10:13:55;;;;;;;9.68;8.55;;;;;;;33.56;37.39;94794.63;4951375;28;20252;-79
2023/08/04 10:16:26;;;;;;;10.55;9.10;;;;;;;33.48;39.58;94788.22;4925711;28;20895;-80
2023/08/04 10:19:02;;;;;;;15.38;9.38;;;;;;;33.49;38.87;94783.53;4967557;28;20721;-78
2023/08/04 10:21:47;;;;;;;15.32;9.25;;;;;;;33.40;40.12;94782.91;4955682;28;20303;-79
2023/08/04 10:24:13;;;;;;;11.38;9.38;;;;;;;33.51;40.48;94782.06;4960579;28;20317;-78
2023/08/04 10:26:51;;;;;;;11.32;9.70;;;;;;;33.50;40.38;94779.72;4935483;28;20347;-79
2023/08/04 10:29:20;;;;;;;11.35;9.38;;;;;;;33.51;39.45;94779.34;4935956;28;20328;-78
2023/08/04 10:31:45;;;;;;;11.90;9.75;;;;;;;33.61;38.43;94778.88;4925993;28;21228;-78
2023/08/04 10:34:47;;;;;;;14.82;8.93;;;;;;;33.66;37.72;94773.19;4946805;28;20232;-78
2023/08/04 10:37:16;;;;;;;11.30;8.95;;;;;;;33.79;37.64;94780.13;4984898;28;20240;-78
2023/08/04 10:39:48;;;;;;;12.95;9.07;;;;;;;33.50;39.54;94771.56;4986589;28;20217;-79
2023/08/04 10:42:25;;;;;;;11.80;9.07;;;;;;;33.28;38.39;94772.13;4950492;28;20225;-77
2023/08/04 10:44:55;;;;;;;11.65;9.65;;;;;;;33.21;39.37;94770.00;4955116;28;20777;-77
2023/08/04 10:47:39;;;;;;;11.32;8.95;;;;;;;33.15;38.48;94774.88;4935716;28;20624;-78
2023/08/04 10:50:05;;;;;;;10.52;9.27;;;;;;;33.23;38.43;94768.53;4935278;29;20232;-77
2023/08/04 10:52:32;;;;;;;15.93;9.07;;;;;;;33.37;38.61;94761.88;4954440;28;20224;-80
2023/08/04 10:54:57;;;;;;;9.95;8.73;;;;;;;33.54;37.57;94748.03;4941862;29;20316;-77
2023/08/04 10:57:26;;;;;;;10.32;9.15;;;;;;;33.68;37.21;94751.91;4994888;28;21249;-79
2023/08/04 10:59:52;;;;;;;13.95;9.63;;;;;;;33.60;38.68;94757.50;4959128;28;20240;-77
2023/08/04 11:02:21;;;;;;;10.45;8.82;;;;;;;33.41;37.06;94755.44;4931925;28;22081;-77
2023/08/04 11:04:47;;;;;;;11.50;8.57;;;;;;;33.36;37.29;94755.69;4943076;28;20225;-77
2023/08/04 11:07:14;;;;;;;11.15;9.10;;;;;;;33.34;38.81;94757.97;4956159;28;20236;-77
2023/08/04 11:09:39;;;;;;;11.70;9.07;;;;;;;33.27;38.55;94748.84;4951714;28;20286;-78
2023/08/04 11:12:08;;;;;;;11.65;8.85;;;;;;;33.47;36.69;94742.38;4928968;28;20293;-77
2023/08/04 11:14:37;;;;;;;12.40;8.48;;;;;;;33.87;36.63;94751.19;4953881;28;20247;-78